This is the latest recevied weather packets stored in our database for station/object EA5CEE. If no packets are shown the sender has not sent any weather packets the latest 1 day(s).
| Time | Temp. | Humidity | Pressure | Rain* | Wind** | Luminosity | Snow |
|---|---|---|---|---|---|---|---|
| 1777998649 | 20.56° C | 73% | 1008.6 hPa | 0 mm | 5.81 m/s, 170° | - | - |
| 1777997750 | 21.67° C | 64% | 1008.5 hPa | 0 mm | 4.02 m/s, 188° | - | - |
| 1777996852 | 21.67° C | 59% | 1008.5 hPa | 0 mm | 4.92 m/s, 186° | - | - |
| 1777995952 | 22.22° C | 57% | 1008.5 hPa | 0 mm | 4.92 m/s, 155° | - | - |
| 1777995051 | 22.22° C | 52% | 1008.5 hPa | 0 mm | 5.81 m/s, 159° | - | - |
| 1777994148 | 21.67° C | 52% | 1008.5 hPa | 0 mm | 6.71 m/s, 193° | - | - |
| 1777993244 | 22.22° C | 53% | 1008.5 hPa | 0 mm | 5.81 m/s, 170° | - | - |
| 1777992346 | 22.22° C | 51% | 1008.7 hPa | 0 mm | 4.47 m/s, 191° | - | - |
| 1777991467 | 22.22° C | 53% | 1008.7 hPa | 0 mm | 4.47 m/s, 165° | - | - |
| 1777990538 | 21.67° C | 51% | 1008.9 hPa | 0 mm | 5.81 m/s, 187° | - | - |
| 1777989651 | 21.67° C | 53% | 1009.1 hPa | 0 mm | 6.26 m/s, 165° | - | - |
| 1777988739 | 21.11° C | 55% | 1009.3 hPa | 0 mm | 5.81 m/s, 149° | - | - |
| 1777987834 | 21.11° C | 58% | 1009.5 hPa | 0 mm | 5.81 m/s, 178° | - | - |
| 1777986930 | 21.67° C | 52% | 1009.6 hPa | 0 mm | 5.81 m/s, 139° | - | - |
| 1777986028 | 21.11° C | 54% | 1009.7 hPa | 0 mm | 4.92 m/s, 171° | - | - |
| 1777985127 | 21.11° C | 58% | 1009.8 hPa | 0 mm | 5.36 m/s, 179° | - | - |
| 1777984226 | 21.11° C | 60% | 1009.9 hPa | 0 mm | 4.92 m/s, 160° | - | - |
| 1777983325 | 21.67° C | 62% | 1009.9 hPa | 0 mm | 3.13 m/s, 121° | - | - |
| 1777982427 | 21.67° C | 62% | 1010 hPa | 0 mm | 3.58 m/s, 121° | - | - |
| 1777981523 | 21.67° C | 60% | 1010.2 hPa | 0 mm | 2.68 m/s, 139° | - | - |
| 1777980631 | 21.11° C | 62% | 1010.4 hPa | 0 mm | 3.58 m/s, 150° | - | - |
| 1777979736 | 20.56° C | 71% | 1010.6 hPa | 0 mm | 4.47 m/s, 106° | - | - |
| 1777978822 | 20.56° C | 73% | 1010.6 hPa | 0 mm | 3.58 m/s, 69° | - | - |
| 1777977914 | 21.11° C | 70% | 1010.7 hPa | 0 mm | 2.24 m/s, 129° | - | - |
| 1777977026 | 21.11° C | 68% | 1010.7 hPa | 0 mm | 2.24 m/s, 107° | - | - |
* Rain latest hour (hover to see other rain measurements)
** Current wind speed in m/s (hover to see current wind gust speed)